My webcam  My webcam


Besök vår andra vädersida:

Template documentation
and downloads

And another site



Nearby METAR Reports

   
ESOE - Orebro (private), Sweden
Distance from station: SSV 25 km
Updated: 20-09-2020 16:50
Delvis molnigt  
Delvis molnigt  
   Vind: VSV 3.6 m/s
Vind: VSV 3.6 m/s
Temperature: 15°C
Daggpunkt: 11°C
Luftfuktighet: 77%
Barometer: 1018 hPa
Moln: Delvis molnigt
Visibility: Mer än 10 km
Cloud details: Delvis molnigt 2500 ft
ESOE 201450Z AUTO 24007KT 200V280 9999 SCT025/// 15/11 Q1018
ESSP - Norrkoping/Kungs, Sweden
Distance from station: SO 114 km
Updated: 20-09-2020 16:50
Mestadels molningt  
Mestadels molningt  
   Vind: VNV 4.6 m/s
Vind: VNV 4.6 m/s
Temperature: 15°C
Daggpunkt: 10°C
Luftfuktighet: 72%
Barometer: 1018 hPa
Moln: Mestadels molningt
Visibility: Mer än 10 km
Cloud details: Mestadels molningt 2600 ft
ESSP 201450Z 30009KT 9999 BKN026 15/10 Q1018
ESSB - Stockholm/Bromma, Sweden
Distance from station: O 156 km
Updated: 20-09-2020 16:50
Mestadels molningt  
Mestadels molningt  
   Vind: VSV 4.6 m/s
Vind: VSV 4.6 m/s
Temperature: 14°C
Daggpunkt: 10°C
Luftfuktighet: 77%
Barometer: 1017 hPa
Moln: Mestadels molningt
Visibility: Mer än 10 km
Cloud details: Mestadels molningt 1800 ft
ESSB 201450Z 25009KT 9999 BKN018 14/10 Q1017
ESSV - Visby Airport, Sweden
Distance from station: SO 269 km
Updated: 20-09-2020 16:50
Mestadels molningt  
Mestadels molningt  
   Vind: VSV 5.1 m/s
Vind: VSV 5.1 m/s
Temperature: 13°C
Daggpunkt: 11°C
Luftfuktighet: 88%
Barometer: 1019 hPa
Moln: Mestadels molningt
Visibility: Mer än 10 km
Cloud details: Mestadels molningt 900 ft
ESSV 201450Z 24010KT 9999 BKN009 13/11 Q1019
ESNZ - Ostersund/Froson, Sweden
Distance from station: SSV 1 km
Updated: 20-09-2020 16:50
Mulet  
Mulet  
   Vind: VNV 9.8 m/s
Vind: VNV 9.8 m/s
Temperature: 9°C
Wind Chill: 5°C
Daggpunkt: 6°C
Luftfuktighet: 82%
Barometer: 1012 hPa
Moln: Mulet
Visibility: Mer än 10 km
Cloud details: Glesa moln 2000 ft,
Mestadels molningt 4200 ft,
Mulet 5900 ft
ESNZ 201450Z 29019KT 9999 FEW020 BKN042 OVC059 09/06 Q1012 RERA
ESPA - Kallax/Lulea (af, Sweden
Distance from station: SSO 7 km
Updated: 20-09-2020 16:50
Klart  
Klart  
   Vind: Väst 3.1 m/s
Vind: Väst 3.1 m/s
Temperature: 12°C
Daggpunkt: 3°C
Luftfuktighet: 54%
Barometer: 1003 hPa
Visibility: Mer än 10 km
Cloud details: Klart
ESPA 201450Z 28006KT CAVOK 12/03 Q1003

Script developed by  Saratoga-weather.org Adapted for the template by  Weerstation Leuven